JBU1528 MDPP-KJFK
Flight info
| Callsign | JBU1528 |
|---|---|
| Flight time | N/A |
| Altitude | 35000 |
| Route | LERED3C LERED DCT LAMER/M079F340 L453 SAUCR/M079F350 Y485 CHUBY/M079F360 Y485 HOBOH/M079F350 Y485 SILLY/N0459F350 Y485 YAALE Y495 MOUGH/N0456F360 Y495 CAMRN |
| Aircraft | A321/M-SDE3FGHIRWY/LB1 |
Departure
| Time | 2026-04-14 21:58 |
|---|---|
| Airport | Gregorio Luperon International Airport (MDPP) |
Arrival
| Time | N/A |
|---|---|
| Airport | John F. Kennedy International Airport (KJFK) |
| Time | Latitude | Longitude | Altitude | Speed | Heading |
|---|---|---|---|---|---|
| 2026-04-14 21:46 | 19.75703 | -70.56320 | 31 ft | 0 kts | 254° |
| 2026-04-14 21:50 | 19.75702 | -70.56324 | 31 ft | 1 kts | 254° |
| 2026-04-14 21:51 | 19.75702 | -70.56337 | 31 ft | 2 kts | 278° |
| 2026-04-14 21:51 | 19.75708 | -70.56360 | 33 ft | 5 kts | 283° |
| 2026-04-14 21:51 | 19.75707 | -70.56411 | 34 ft | 8 kts | 259° |
| 2026-04-14 21:51 | 19.75691 | -70.56471 | 35 ft | 9 kts | 252° |
| 2026-04-14 21:52 | 19.75672 | -70.56535 | 35 ft | 9 kts | 252° |
| 2026-04-14 21:52 | 19.75652 | -70.56603 | 35 ft | 10 kts | 252° |
| 2026-04-14 21:52 | 19.75629 | -70.56679 | 33 ft | 11 kts | 252° |
| 2026-04-14 21:52 | 19.75606 | -70.56757 | 35 ft | 12 kts | 252° |
| 2026-04-14 21:53 | 19.75581 | -70.56842 | 35 ft | 12 kts | 252° |
| 2026-04-14 21:53 | 19.75554 | -70.56931 | 34 ft | 13 kts | 252° |
| 2026-04-14 21:53 | 19.75535 | -70.57027 | 34 ft | 13 kts | 279° |
| 2026-04-14 21:53 | 19.75590 | -70.57108 | 34 ft | 14 kts | 313° |
| 2026-04-14 21:54 | 19.75661 | -70.57185 | 33 ft | 15 kts | 315° |
| 2026-04-14 21:54 | 19.75699 | -70.57288 | 33 ft | 16 kts | 265° |
| 2026-04-14 21:54 | 19.75670 | -70.57402 | 33 ft | 16 kts | 253° |
| 2026-04-14 21:54 | 19.75636 | -70.57520 | 32 ft | 17 kts | 253° |
| 2026-04-14 21:55 | 19.75601 | -70.57642 | 33 ft | 17 kts | 253° |
| 2026-04-14 21:55 | 19.75567 | -70.57760 | 35 ft | 16 kts | 253° |
| 2026-04-14 21:55 | 19.75534 | -70.57873 | 36 ft | 16 kts | 253° |
| 2026-04-14 21:55 | 19.75500 | -70.57989 | 36 ft | 17 kts | 253° |
| 2026-04-14 21:56 | 19.75467 | -70.58104 | 35 ft | 17 kts | 253° |
| 2026-04-14 21:56 | 19.75433 | -70.58222 | 36 ft | 16 kts | 253° |
| 2026-04-14 21:56 | 19.75397 | -70.58326 | 36 ft | 12 kts | 232° |
| 2026-04-14 21:56 | 19.75378 | -70.58367 | 36 ft | 2 kts | 326° |
| 2026-04-14 21:57 | 19.75388 | -70.58358 | 34 ft | 2 kts | 46° |
| 2026-04-14 21:57 | 19.75401 | -70.58330 | 36 ft | 7 kts | 66° |
| 2026-04-14 21:57 | 19.75409 | -70.58306 | 34 ft | 1 kts | 73° |
| 2026-04-14 21:57 | 19.75422 | -70.58262 | 36 ft | 28 kts | 73° |
| 2026-04-14 21:58 | 19.75548 | -70.57822 | 36 ft | 95 kts | 73° |
| 2026-04-14 21:58 | 19.75799 | -70.56951 | 36 ft | 149 kts | 73° |
| 2026-04-14 21:58 | 19.76114 | -70.55788 | 318 ft | 167 kts | 75° |
| 2026-04-14 21:58 | 19.76407 | -70.54599 | 906 ft | 168 kts | 69° |
| 2026-04-14 21:59 | 19.76757 | -70.53396 | 1378 ft | 176 kts | 68° |
| 2026-04-14 21:59 | 19.77153 | -70.52117 | 1661 ft | 189 kts | 66° |
| 2026-04-14 21:59 | 19.77773 | -70.50833 | 1887 ft | 203 kts | 45° |
| 2026-04-14 21:59 | 19.79010 | -70.50030 | 2014 ft | 222 kts | 12° |
| 2026-04-14 22:00 | 19.80629 | -70.50054 | 2176 ft | 246 kts | 349° |
| 2026-04-14 22:00 | 19.82357 | -70.50386 | 2711 ft | 259 kts | 350° |
| 2026-04-14 22:00 | 19.84167 | -70.50418 | 3543 ft | 261 kts | 11° |
| 2026-04-14 22:00 | 19.85905 | -70.49896 | 4413 ft | 258 kts | 17° |
| 2026-04-14 22:01 | 19.87623 | -70.49242 | 5019 ft | 266 kts | 20° |
| 2026-04-14 22:01 | 19.89345 | -70.48502 | 5686 ft | 269 kts | 21° |
| 2026-04-14 22:01 | 19.91070 | -70.47744 | 6281 ft | 268 kts | 21° |
| 2026-04-14 22:01 | 19.92872 | -70.47115 | 6670 ft | 278 kts | 7° |
| 2026-04-14 22:02 | 19.94820 | -70.47039 | 7258 ft | 281 kts | 359° |
| 2026-04-14 22:02 | 19.96757 | -70.47040 | 8068 ft | 277 kts | 0° |
| 2026-04-14 22:02 | 19.98679 | -70.47015 | 8803 ft | 277 kts | 1° |
| 2026-04-14 22:02 | 20.00620 | -70.46963 | 9399 ft | 281 kts | 1° |
| 2026-04-14 22:03 | 20.02585 | -70.46892 | 10043 ft | 283 kts | 3° |
| 2026-04-14 22:03 | 20.04586 | -70.46806 | 10372 ft | 297 kts | 3° |
| 2026-04-14 22:03 | 20.06697 | -70.46706 | 10504 ft | 317 kts | 3° |
| 2026-04-14 22:03 | 20.08966 | -70.46596 | 10626 ft | 336 kts | 3° |
| 2026-04-14 22:04 | 20.11364 | -70.46479 | 10754 ft | 353 kts | 3° |
| 2026-04-14 22:04 | 20.13848 | -70.46364 | 11179 ft | 359 kts | 3° |
| 2026-04-14 22:04 | 20.16368 | -70.46246 | 11689 ft | 364 kts | 3° |
| 2026-04-14 22:04 | 20.18907 | -70.46123 | 12240 ft | 367 kts | 3° |
| 2026-04-14 22:05 | 20.21464 | -70.45997 | 12798 ft | 369 kts | 4° |
| 2026-04-14 22:05 | 20.24044 | -70.45869 | 13318 ft | 373 kts | 3° |
| 2026-04-14 22:05 | 20.26653 | -70.45741 | 13855 ft | 376 kts | 3° |
| 2026-04-14 22:05 | 20.29277 | -70.45614 | 14311 ft | 379 kts | 4° |
| 2026-04-14 22:06 | 20.31918 | -70.45484 | 14816 ft | 381 kts | 3° |
| 2026-04-14 22:06 | 20.34577 | -70.45353 | 15304 ft | 383 kts | 4° |
| 2026-04-14 22:06 | 20.37250 | -70.45222 | 15802 ft | 386 kts | 4° |
| 2026-04-14 22:06 | 20.39940 | -70.45091 | 16307 ft | 388 kts | 4° |
| 2026-04-14 22:07 | 20.42637 | -70.44924 | 16813 ft | 389 kts | 5° |
| 2026-04-14 22:07 | 20.45347 | -70.44707 | 17318 ft | 391 kts | 6° |
| 2026-04-14 22:07 | 20.48066 | -70.44462 | 17824 ft | 393 kts | 6° |
| 2026-04-14 22:07 | 20.50801 | -70.44208 | 18322 ft | 395 kts | 6° |
| 2026-04-14 22:08 | 20.53547 | -70.43954 | 18743 ft | 397 kts | 6° |
| 2026-04-14 22:08 | 20.56271 | -70.43710 | 19139 ft | 399 kts | 6° |
| 2026-04-14 22:08 | 20.59046 | -70.43471 | 19538 ft | 401 kts | 5° |
| 2026-04-14 22:08 | 20.61832 | -70.43237 | 19928 ft | 403 kts | 5° |
| 2026-04-14 22:09 | 20.64635 | -70.43004 | 20317 ft | 404 kts | 5° |
| 2026-04-14 22:09 | 20.67451 | -70.42773 | 20685 ft | 407 kts | 5° |
| 2026-04-14 22:09 | 20.70278 | -70.42539 | 21042 ft | 409 kts | 5° |
| 2026-04-14 22:09 | 20.73124 | -70.42300 | 21397 ft | 411 kts | 5° |
| 2026-04-14 22:10 | 20.75982 | -70.42056 | 21757 ft | 413 kts | 5° |
| 2026-04-14 22:10 | 20.78852 | -70.41812 | 22091 ft | 415 kts | 5° |
| 2026-04-14 22:10 | 20.81734 | -70.41567 | 22431 ft | 417 kts | 5° |
| 2026-04-14 22:10 | 20.84632 | -70.41319 | 22770 ft | 418 kts | 5° |
| 2026-04-14 22:11 | 20.87541 | -70.41071 | 23105 ft | 421 kts | 5° |
| 2026-04-14 22:11 | 20.90467 | -70.40824 | 23429 ft | 423 kts | 5° |
| 2026-04-14 22:11 | 20.93410 | -70.40577 | 23724 ft | 425 kts | 4° |
| 2026-04-14 22:11 | 20.96365 | -70.40330 | 24007 ft | 426 kts | 5° |
| 2026-04-14 22:12 | 20.99330 | -70.40079 | 24265 ft | 429 kts | 5° |
| 2026-04-14 22:12 | 21.02311 | -70.39827 | 24540 ft | 431 kts | 5° |
| 2026-04-14 22:12 | 21.05310 | -70.39574 | 24825 ft | 432 kts | 5° |
| 2026-04-14 22:12 | 21.08314 | -70.39322 | 25106 ft | 434 kts | 4° |
| 2026-04-14 22:13 | 21.11329 | -70.39069 | 25389 ft | 435 kts | 4° |
| 2026-04-14 22:13 | 21.14318 | -70.38815 | 25660 ft | 437 kts | 5° |
| 2026-04-14 22:13 | 21.17357 | -70.38556 | 25929 ft | 438 kts | 4° |
| 2026-04-14 22:13 | 21.20404 | -70.38296 | 26196 ft | 440 kts | 4° |
| 2026-04-14 22:14 | 21.23467 | -70.38035 | 26461 ft | 441 kts | 4° |
| 2026-04-14 22:14 | 21.26535 | -70.37774 | 26730 ft | 443 kts | 4° |
| 2026-04-14 22:14 | 21.29609 | -70.37512 | 27004 ft | 444 kts | 5° |
| 2026-04-14 22:14 | 21.32696 | -70.37248 | 27270 ft | 446 kts | 5° |
| 2026-04-14 22:15 | 21.35798 | -70.36981 | 27553 ft | 447 kts | 5° |
| 2026-04-14 22:15 | 21.38908 | -70.36714 | 27824 ft | 449 kts | 5° |
| 2026-04-14 22:15 | 21.42023 | -70.36446 | 28078 ft | 450 kts | 4° |
| 2026-04-14 22:15 | 21.45151 | -70.36181 | 28437 ft | 449 kts | 4° |
| 2026-04-14 22:16 | 21.48266 | -70.35919 | 28805 ft | 448 kts | 4° |
| 2026-04-14 22:16 | 21.51369 | -70.35659 | 29167 ft | 447 kts | 4° |
| 2026-04-14 22:16 | 21.54472 | -70.35399 | 29526 ft | 446 kts | 4° |
| 2026-04-14 22:16 | 21.57562 | -70.35138 | 29882 ft | 445 kts | 4° |
| 2026-04-14 22:17 | 21.60648 | -70.34871 | 30219 ft | 444 kts | 4° |
| 2026-04-14 22:17 | 21.63727 | -70.34603 | 30515 ft | 444 kts | 4° |
| 2026-04-14 22:17 | 21.66766 | -70.34341 | 30796 ft | 443 kts | 4° |
| 2026-04-14 22:17 | 21.69838 | -70.34080 | 31075 ft | 443 kts | 4° |
| 2026-04-14 22:18 | 21.72906 | -70.33821 | 31345 ft | 442 kts | 4° |
| 2026-04-14 22:18 | 21.75971 | -70.33560 | 31626 ft | 442 kts | 4° |
| 2026-04-14 22:18 | 21.79036 | -70.33299 | 31891 ft | 441 kts | 4° |
| 2026-04-14 22:18 | 21.82095 | -70.33037 | 32157 ft | 441 kts | 4° |
| 2026-04-14 22:19 | 21.84161 | -70.32860 | 32344 ft | 441 kts | 4° |
| 2026-04-14 22:19 | 21.90232 | -70.32337 | 32874 ft | 440 kts | 4° |
| 2026-04-14 22:19 | 21.93279 | -70.32074 | 33136 ft | 439 kts | 4° |
| 2026-04-14 22:20 | 21.96328 | -70.31811 | 33394 ft | 439 kts | 4° |
| 2026-04-14 22:20 | 21.99374 | -70.31550 | 33649 ft | 438 kts | 4° |
| 2026-04-14 22:20 | 22.02415 | -70.31289 | 33910 ft | 438 kts | 4° |
| 2026-04-14 22:20 | 22.05454 | -70.31026 | 34139 ft | 438 kts | 4° |
| 2026-04-14 22:21 | 22.08491 | -70.30762 | 34350 ft | 437 kts | 3° |
| 2026-04-14 22:21 | 22.11522 | -70.30500 | 34558 ft | 437 kts | 3° |
| 2026-04-14 22:21 | 22.14554 | -70.30240 | 34775 ft | 437 kts | 3° |
| 2026-04-14 22:21 | 22.17583 | -70.29981 | 34957 ft | 437 kts | 3° |
| 2026-04-14 22:22 | 22.20615 | -70.29723 | 35033 ft | 437 kts | 3° |
| 2026-04-14 22:22 | 22.26671 | -70.29199 | 35040 ft | 437 kts | 3° |
| 2026-04-14 22:23 | 22.32737 | -70.28673 | 35040 ft | 436 kts | 3° |
| 2026-04-14 22:23 | 22.38789 | -70.28153 | 35046 ft | 436 kts | 3° |
| 2026-04-14 22:24 | 22.44845 | -70.27635 | 35043 ft | 436 kts | 3° |
| 2026-04-14 22:24 | 22.50899 | -70.27109 | 35054 ft | 437 kts | 3° |
| 2026-04-14 22:25 | 22.56960 | -70.26584 | 35058 ft | 436 kts | 3° |
| 2026-04-14 22:25 | 22.63012 | -70.26064 | 35064 ft | 436 kts | 3° |
| 2026-04-14 22:26 | 22.69071 | -70.25536 | 35061 ft | 436 kts | 3° |
| 2026-04-14 22:26 | 22.75113 | -70.25009 | 35067 ft | 436 kts | 3° |
| 2026-04-14 22:27 | 22.81158 | -70.24489 | 35071 ft | 435 kts | 4° |
| 2026-04-14 22:27 | 22.87196 | -70.23968 | 35072 ft | 435 kts | 4° |
| 2026-04-14 22:28 | 22.93204 | -70.23450 | 35069 ft | 435 kts | 4° |
| 2026-04-14 22:28 | 22.99242 | -70.22926 | 35076 ft | 435 kts | 4° |
| 2026-04-14 22:29 | 23.05281 | -70.22396 | 35078 ft | 435 kts | 3° |
| 2026-04-14 22:29 | 23.11322 | -70.21867 | 35072 ft | 435 kts | 4° |
| 2026-04-14 22:30 | 23.17358 | -70.21342 | 35085 ft | 435 kts | 3° |
| 2026-04-14 22:30 | 23.23398 | -70.20812 | 35085 ft | 435 kts | 4° |
| 2026-04-14 22:31 | 23.29431 | -70.20286 | 35087 ft | 435 kts | 4° |
| 2026-04-14 22:31 | 23.35464 | -70.19766 | 35101 ft | 435 kts | 4° |
| 2026-04-14 22:32 | 23.41494 | -70.19231 | 35095 ft | 435 kts | 4° |
| 2026-04-14 22:32 | 23.47528 | -70.18699 | 35095 ft | 434 kts | 4° |
| 2026-04-14 22:33 | 23.53568 | -70.18178 | 35093 ft | 435 kts | 4° |
| 2026-04-14 22:33 | 23.59601 | -70.17649 | 35095 ft | 435 kts | 4° |
| 2026-04-14 22:34 | 23.65632 | -70.17118 | 35092 ft | 435 kts | 4° |
| 2026-04-14 22:34 | 23.71653 | -70.16590 | 35081 ft | 434 kts | 4° |
| 2026-04-14 22:35 | 23.77684 | -70.16062 | 35083 ft | 434 kts | 4° |
| 2026-04-14 22:35 | 23.83707 | -70.15518 | 35090 ft | 434 kts | 4° |
| 2026-04-14 22:36 | 23.89702 | -70.14988 | 35094 ft | 435 kts | 4° |
| 2026-04-14 22:36 | 23.95738 | -70.14460 | 35102 ft | 435 kts | 4° |
| 2026-04-14 22:37 | 24.01777 | -70.13925 | 35102 ft | 435 kts | 4° |
| 2026-04-14 22:37 | 24.07819 | -70.13391 | 35111 ft | 435 kts | 4° |
| 2026-04-14 22:38 | 24.13851 | -70.12856 | 35109 ft | 435 kts | 4° |
| 2026-04-14 22:38 | 24.19874 | -70.12319 | 35115 ft | 434 kts | 4° |
| 2026-04-14 22:39 | 24.25895 | -70.11786 | 35115 ft | 434 kts | 4° |
| 2026-04-14 22:39 | 24.31918 | -70.11252 | 35111 ft | 434 kts | 4° |
| 2026-04-14 22:40 | 24.37956 | -70.10709 | 35101 ft | 435 kts | 4° |
| 2026-04-14 22:40 | 24.44003 | -70.10167 | 35104 ft | 436 kts | 4° |
| 2026-04-14 22:41 | 24.50058 | -70.09637 | 35105 ft | 437 kts | 4° |
| 2026-04-14 22:41 | 24.56115 | -70.09092 | 35111 ft | 437 kts | 4° |
| 2026-04-14 22:42 | 24.62180 | -70.08539 | 35111 ft | 438 kts | 4° |
| 2026-04-14 22:42 | 24.68256 | -70.08002 | 35115 ft | 438 kts | 4° |
| 2026-04-14 22:43 | 24.74354 | -70.07457 | 35113 ft | 439 kts | 4° |
| 2026-04-14 22:43 | 24.80449 | -70.06914 | 35124 ft | 440 kts | 4° |
| 2026-04-14 22:44 | 24.86518 | -70.06379 | 35124 ft | 441 kts | 4° |
| 2026-04-14 22:44 | 24.92675 | -70.05822 | 35128 ft | 441 kts | 4° |
| 2026-04-14 22:45 | 24.98765 | -70.05339 | 35127 ft | 441 kts | 359° |
| 2026-04-14 22:45 | 25.04826 | -70.06258 | 35132 ft | 441 kts | 348° |
| 2026-04-14 22:46 | 25.10831 | -70.07657 | 35129 ft | 441 kts | 348° |
| 2026-04-14 22:46 | 25.16837 | -70.09034 | 35139 ft | 441 kts | 348° |
| 2026-04-14 22:47 | 25.22857 | -70.10420 | 35134 ft | 442 kts | 348° |
| 2026-04-14 22:47 | 25.28883 | -70.11803 | 35137 ft | 443 kts | 348° |
| 2026-04-14 22:48 | 25.34922 | -70.13205 | 35136 ft | 444 kts | 348° |
| 2026-04-14 22:48 | 25.40934 | -70.14596 | 35139 ft | 444 kts | 348° |
| 2026-04-14 22:49 | 25.46986 | -70.16001 | 35149 ft | 444 kts | 348° |
| 2026-04-14 22:49 | 25.53051 | -70.17410 | 35165 ft | 445 kts | 348° |
| 2026-04-14 22:50 | 25.59117 | -70.18810 | 35158 ft | 446 kts | 348° |
| 2026-04-14 22:50 | 25.65191 | -70.20214 | 35157 ft | 446 kts | 346° |
| 2026-04-14 22:51 | 25.71259 | -70.21629 | 35160 ft | 446 kts | 347° |
| 2026-04-14 22:51 | 25.77340 | -70.23029 | 35166 ft | 446 kts | 347° |
| 2026-04-14 22:52 | 25.83415 | -70.24431 | 35168 ft | 446 kts | 347° |
| 2026-04-14 22:52 | 25.89501 | -70.25849 | 35176 ft | 447 kts | 347° |
| 2026-04-14 22:53 | 25.95586 | -70.27280 | 35170 ft | 447 kts | 347° |
| 2026-04-14 22:53 | 26.01674 | -70.28713 | 35182 ft | 447 kts | 347° |
| 2026-04-14 22:54 | 26.07762 | -70.30130 | 35186 ft | 447 kts | 347° |
| 2026-04-14 22:54 | 26.13809 | -70.31547 | 35185 ft | 447 kts | 347° |
| 2026-04-14 22:55 | 26.19897 | -70.32971 | 35185 ft | 447 kts | 347° |
| 2026-04-14 22:55 | 26.25985 | -70.34405 | 35190 ft | 447 kts | 346° |
| 2026-04-14 22:56 | 26.32080 | -70.35836 | 35185 ft | 447 kts | 347° |
| 2026-04-14 22:56 | 26.38183 | -70.37265 | 35192 ft | 448 kts | 346° |
| 2026-04-14 22:57 | 26.44283 | -70.38697 | 35195 ft | 448 kts | 346° |
| 2026-04-14 22:57 | 26.50376 | -70.40136 | 35198 ft | 448 kts | 347° |
| 2026-04-14 22:58 | 26.56468 | -70.41576 | 35197 ft | 448 kts | 346° |
| 2026-04-14 22:58 | 26.62560 | -70.43021 | 35191 ft | 447 kts | 346° |
| 2026-04-14 22:59 | 26.68652 | -70.44462 | 35195 ft | 447 kts | 346° |
| 2026-04-14 22:59 | 26.73715 | -70.45651 | 35192 ft | 447 kts | 346° |
| 2026-04-14 23:00 | 26.79805 | -70.47083 | 35193 ft | 447 kts | 346° |
| 2026-04-14 23:00 | 26.85900 | -70.48535 | 35202 ft | 448 kts | 346° |
| 2026-04-14 23:01 | 26.92006 | -70.49983 | 35211 ft | 448 kts | 347° |
| 2026-04-14 23:01 | 26.98111 | -70.51435 | 35211 ft | 448 kts | 346° |
| 2026-04-14 23:02 | 27.04184 | -70.52884 | 35218 ft | 448 kts | 346° |
| 2026-04-14 23:02 | 27.10288 | -70.54334 | 35215 ft | 448 kts | 346° |
| 2026-04-14 23:03 | 27.16382 | -70.55790 | 35218 ft | 448 kts | 346° |
| 2026-04-14 23:03 | 27.22474 | -70.57237 | 35218 ft | 447 kts | 346° |
| 2026-04-14 23:04 | 27.28559 | -70.58696 | 35221 ft | 447 kts | 346° |
| 2026-04-14 23:04 | 27.34642 | -70.60161 | 35223 ft | 447 kts | 346° |
| 2026-04-14 23:05 | 27.40736 | -70.61610 | 35221 ft | 447 kts | 346° |
| 2026-04-14 23:05 | 27.46835 | -70.63066 | 35219 ft | 448 kts | 346° |
| 2026-04-14 23:06 | 27.52929 | -70.64530 | 35225 ft | 447 kts | 346° |
| 2026-04-14 23:06 | 27.58981 | -70.65987 | 35237 ft | 447 kts | 346° |
| 2026-04-14 23:07 | 27.65071 | -70.67457 | 35245 ft | 447 kts | 346° |
| 2026-04-14 23:07 | 27.71149 | -70.68921 | 35242 ft | 446 kts | 347° |
| 2026-04-14 23:08 | 27.77231 | -70.70384 | 35246 ft | 446 kts | 346° |
| 2026-04-14 23:08 | 27.83310 | -70.71849 | 35245 ft | 446 kts | 346° |
| 2026-04-14 23:09 | 27.89384 | -70.73326 | 35250 ft | 446 kts | 346° |
| 2026-04-14 23:09 | 27.95456 | -70.74799 | 35250 ft | 446 kts | 347° |
| 2026-04-14 23:10 | 28.01536 | -70.76265 | 35250 ft | 446 kts | 346° |
| 2026-04-14 23:10 | 28.07611 | -70.77737 | 35242 ft | 447 kts | 346° |
| 2026-04-14 23:11 | 28.13687 | -70.79215 | 35251 ft | 446 kts | 346° |
| 2026-04-14 23:11 | 28.19759 | -70.80689 | 35254 ft | 446 kts | 347° |
| 2026-04-14 23:12 | 28.25832 | -70.82159 | 35255 ft | 446 kts | 346° |
| 2026-04-14 23:12 | 28.31902 | -70.83640 | 35255 ft | 446 kts | 346° |
| 2026-04-14 23:13 | 28.37980 | -70.85126 | 35260 ft | 446 kts | 346° |
| 2026-04-14 23:13 | 28.44020 | -70.86587 | 35259 ft | 447 kts | 347° |
| 2026-04-14 23:14 | 28.50104 | -70.88070 | 35263 ft | 447 kts | 346° |
| 2026-04-14 23:14 | 28.56179 | -70.89562 | 35267 ft | 447 kts | 346° |
| 2026-04-14 23:15 | 28.62263 | -70.91052 | 35268 ft | 447 kts | 346° |
| 2026-04-14 23:15 | 28.68336 | -70.92546 | 35273 ft | 446 kts | 346° |
| 2026-04-14 23:16 | 28.74405 | -70.94044 | 35276 ft | 446 kts | 347° |
| 2026-04-14 23:16 | 28.80481 | -70.95540 | 35276 ft | 446 kts | 346° |
| 2026-04-14 23:17 | 28.86557 | -70.97027 | 35276 ft | 446 kts | 346° |
| 2026-04-14 23:17 | 28.92632 | -70.98523 | 35270 ft | 446 kts | 346° |
| 2026-04-14 23:18 | 29.01744 | -71.00779 | 35271 ft | 447 kts | 346° |
| 2026-04-14 23:18 | 29.07782 | -71.02270 | 35282 ft | 446 kts | 346° |
| 2026-04-14 23:19 | 29.13857 | -71.03779 | 35283 ft | 446 kts | 346° |
| 2026-04-14 23:19 | 29.19934 | -71.05280 | 35281 ft | 446 kts | 346° |
| 2026-04-14 23:20 | 29.26002 | -71.06780 | 35284 ft | 446 kts | 346° |
| 2026-04-14 23:20 | 29.32060 | -71.08286 | 35283 ft | 446 kts | 347° |
| 2026-04-14 23:21 | 29.38122 | -71.09789 | 35281 ft | 445 kts | 346° |
| 2026-04-14 23:21 | 29.44180 | -71.11305 | 35282 ft | 445 kts | 346° |
| 2026-04-14 23:22 | 29.50238 | -71.12816 | 35281 ft | 445 kts | 346° |
| 2026-04-14 23:22 | 29.56305 | -71.14338 | 35282 ft | 446 kts | 346° |
| 2026-04-14 23:23 | 29.62322 | -71.15837 | 35294 ft | 445 kts | 347° |
| 2026-04-14 23:23 | 29.68375 | -71.17346 | 35292 ft | 445 kts | 347° |
| 2026-04-14 23:24 | 29.74419 | -71.18866 | 35291 ft | 444 kts | 347° |
| 2026-04-14 23:24 | 29.80463 | -71.20377 | 35292 ft | 444 kts | 347° |
| 2026-04-14 23:25 | 29.86499 | -71.21891 | 35290 ft | 444 kts | 347° |
| 2026-04-14 23:25 | 29.92530 | -71.23420 | 35291 ft | 443 kts | 347° |
| 2026-04-14 23:26 | 29.98562 | -71.24948 | 35293 ft | 443 kts | 347° |
| 2026-04-14 23:26 | 30.04590 | -71.26459 | 35297 ft | 443 kts | 347° |
| 2026-04-14 23:27 | 30.10616 | -71.27969 | 35295 ft | 443 kts | 347° |
| 2026-04-14 23:27 | 30.16641 | -71.29492 | 35305 ft | 443 kts | 348° |
| 2026-04-14 23:28 | 30.22651 | -71.31024 | 35302 ft | 442 kts | 347° |
| 2026-04-14 23:28 | 30.28656 | -71.32546 | 35306 ft | 442 kts | 347° |
| 2026-04-14 23:29 | 30.34660 | -71.34063 | 35303 ft | 441 kts | 348° |
| 2026-04-14 23:29 | 30.40657 | -71.35579 | 35305 ft | 441 kts | 347° |
| 2026-04-14 23:30 | 30.46650 | -71.37109 | 35308 ft | 441 kts | 348° |
| 2026-04-14 23:30 | 30.52635 | -71.38641 | 35308 ft | 440 kts | 348° |
| 2026-04-14 23:31 | 30.58609 | -71.40165 | 35304 ft | 439 kts | 348° |
| 2026-04-14 23:31 | 30.64583 | -71.41680 | 35306 ft | 439 kts | 348° |
| 2026-04-14 23:32 | 30.70549 | -71.43209 | 35307 ft | 439 kts | 348° |
| 2026-04-14 23:32 | 30.76510 | -71.44741 | 35312 ft | 438 kts | 347° |
| 2026-04-14 23:33 | 30.82429 | -71.46260 | 35312 ft | 437 kts | 347° |
| 2026-04-14 23:33 | 30.88369 | -71.47782 | 35310 ft | 437 kts | 348° |
| 2026-04-14 23:34 | 30.94308 | -71.49303 | 35310 ft | 437 kts | 348° |
| 2026-04-14 23:34 | 31.00243 | -71.50833 | 35310 ft | 436 kts | 347° |
| 2026-04-14 23:35 | 31.06167 | -71.52367 | 35314 ft | 436 kts | 347° |
| 2026-04-14 23:35 | 31.12089 | -71.53892 | 35313 ft | 436 kts | 347° |
| 2026-04-14 23:36 | 31.18007 | -71.55415 | 35316 ft | 435 kts | 347° |
| 2026-04-14 23:36 | 31.23925 | -71.56941 | 35309 ft | 435 kts | 347° |
| 2026-04-14 23:37 | 31.29836 | -71.58473 | 35317 ft | 434 kts | 347° |
| 2026-04-14 23:37 | 31.35738 | -71.60004 | 35319 ft | 434 kts | 347° |
| 2026-04-14 23:38 | 31.41634 | -71.61534 | 35319 ft | 434 kts | 347° |
| 2026-04-14 23:38 | 31.47529 | -71.63064 | 35318 ft | 433 kts | 347° |
| 2026-04-14 23:39 | 31.53381 | -71.64594 | 35316 ft | 433 kts | 347° |
| 2026-04-14 23:39 | 31.59269 | -71.66131 | 35323 ft | 433 kts | 347° |
| 2026-04-14 23:40 | 31.65155 | -71.67669 | 35321 ft | 432 kts | 347° |
| 2026-04-14 23:40 | 31.71029 | -71.69196 | 35320 ft | 432 kts | 347° |
| 2026-04-14 23:41 | 31.76901 | -71.70729 | 35320 ft | 432 kts | 347° |
| 2026-04-14 23:41 | 31.82769 | -71.72267 | 35324 ft | 432 kts | 347° |
| 2026-04-14 23:42 | 31.88629 | -71.73810 | 35320 ft | 431 kts | 347° |
| 2026-04-14 23:42 | 31.93495 | -71.75092 | 35319 ft | 431 kts | 347° |
| 2026-04-14 23:43 | 31.99350 | -71.76630 | 35320 ft | 431 kts | 347° |
| 2026-04-14 23:43 | 32.05211 | -71.78168 | 35318 ft | 431 kts | 347° |
| 2026-04-14 23:44 | 32.11062 | -71.79707 | 35319 ft | 431 kts | 347° |
| 2026-04-14 23:44 | 32.16910 | -71.81261 | 35322 ft | 431 kts | 347° |
| 2026-04-14 23:45 | 32.22761 | -71.82811 | 35320 ft | 431 kts | 347° |
| 2026-04-14 23:45 | 32.28618 | -71.84359 | 35321 ft | 431 kts | 347° |
| 2026-04-14 23:46 | 32.34469 | -71.85915 | 35319 ft | 431 kts | 347° |
| 2026-04-14 23:46 | 32.40317 | -71.87467 | 35325 ft | 431 kts | 347° |
| 2026-04-14 23:47 | 32.46162 | -71.89010 | 35325 ft | 430 kts | 347° |
| 2026-04-14 23:47 | 32.52008 | -71.90561 | 35325 ft | 430 kts | 347° |
| 2026-04-14 23:48 | 32.57845 | -71.92116 | 35319 ft | 430 kts | 347° |
| 2026-04-14 23:48 | 32.63640 | -71.93671 | 35327 ft | 429 kts | 346° |
| 2026-04-14 23:49 | 32.69460 | -71.95234 | 35328 ft | 428 kts | 346° |
| 2026-04-14 23:49 | 32.75274 | -71.96790 | 35327 ft | 428 kts | 347° |
| 2026-04-14 23:50 | 32.81075 | -71.98348 | 35323 ft | 427 kts | 347° |
| 2026-04-14 23:50 | 32.86880 | -71.99894 | 35321 ft | 427 kts | 347° |
| 2026-04-14 23:51 | 32.92675 | -72.01441 | 35319 ft | 426 kts | 346° |
| 2026-04-14 23:51 | 32.98428 | -72.02985 | 35317 ft | 426 kts | 346° |
| 2026-04-14 23:52 | 33.04211 | -72.04558 | 35315 ft | 426 kts | 346° |
| 2026-04-14 23:52 | 33.09991 | -72.06122 | 35314 ft | 426 kts | 346° |
| 2026-04-14 23:53 | 33.15782 | -72.07676 | 35311 ft | 426 kts | 346° |
| 2026-04-14 23:53 | 33.21567 | -72.09250 | 35319 ft | 426 kts | 346° |
| 2026-04-14 23:54 | 33.27352 | -72.10817 | 35317 ft | 427 kts | 346° |
| 2026-04-14 23:54 | 33.33150 | -72.12381 | 35311 ft | 427 kts | 346° |
| 2026-04-14 23:55 | 33.38938 | -72.13944 | 35310 ft | 426 kts | 346° |
| 2026-04-14 23:55 | 33.44723 | -72.15520 | 35314 ft | 426 kts | 346° |
| 2026-04-14 23:56 | 33.50502 | -72.17097 | 35311 ft | 426 kts | 346° |
| 2026-04-14 23:56 | 33.56306 | -72.18679 | 35307 ft | 426 kts | 346° |
| 2026-04-14 23:57 | 33.62053 | -72.20250 | 35308 ft | 426 kts | 346° |
| 2026-04-14 23:57 | 33.67840 | -72.21828 | 35305 ft | 426 kts | 346° |
| 2026-04-14 23:58 | 33.73625 | -72.23403 | 35306 ft | 426 kts | 345° |
| 2026-04-14 23:58 | 33.79403 | -72.24987 | 35302 ft | 426 kts | 345° |
| 2026-04-14 23:59 | 33.85178 | -72.26578 | 35296 ft | 425 kts | 345° |
| 2026-04-14 23:59 | 33.90944 | -72.28168 | 35299 ft | 425 kts | 345° |
| 2026-04-15 00:00 | 33.96707 | -72.29756 | 35301 ft | 424 kts | 345° |
| 2026-04-15 00:00 | 34.02579 | -72.30646 | 35297 ft | 426 kts | 352° |
| 2026-04-15 00:01 | 34.08482 | -72.31269 | 35295 ft | 426 kts | 352° |
| 2026-04-15 00:01 | 34.14353 | -72.31894 | 35292 ft | 426 kts | 352° |
| 2026-04-15 00:02 | 34.20255 | -72.32526 | 35294 ft | 425 kts | 352° |
| 2026-04-15 00:02 | 34.26156 | -72.33169 | 35280 ft | 426 kts | 352° |
| 2026-04-15 00:03 | 34.32065 | -72.33802 | 35281 ft | 426 kts | 352° |
| 2026-04-15 00:03 | 34.37970 | -72.34439 | 35278 ft | 426 kts | 352° |
| 2026-04-15 00:04 | 34.43876 | -72.35079 | 35277 ft | 426 kts | 352° |
| 2026-04-15 00:04 | 34.49782 | -72.35718 | 35284 ft | 426 kts | 352° |
| 2026-04-15 00:05 | 34.55696 | -72.36366 | 35272 ft | 427 kts | 352° |
| 2026-04-15 00:05 | 34.61619 | -72.37011 | 35279 ft | 427 kts | 352° |
| 2026-04-15 00:06 | 34.67543 | -72.37653 | 35278 ft | 428 kts | 352° |
| 2026-04-15 00:06 | 34.73464 | -72.37993 | 35278 ft | 432 kts | 1° |
| 2026-04-15 00:07 | 34.79441 | -72.37057 | 35277 ft | 433 kts | 4° |
| 2026-04-15 00:07 | 34.85427 | -72.36074 | 35273 ft | 433 kts | 4° |
| 2026-04-15 00:08 | 34.91398 | -72.35091 | 35271 ft | 433 kts | 4° |
| 2026-04-15 00:08 | 34.97381 | -72.34207 | 35273 ft | 431 kts | 358° |
| 2026-04-15 00:09 | 35.03372 | -72.34120 | 35271 ft | 430 kts | 357° |
| 2026-04-15 00:09 | 35.09372 | -72.34036 | 35266 ft | 430 kts | 357° |
| 2026-04-15 00:10 | 35.15362 | -72.33948 | 35261 ft | 430 kts | 357° |
| 2026-04-15 00:10 | 35.21360 | -72.33856 | 35271 ft | 431 kts | 356° |
| 2026-04-15 00:11 | 35.27317 | -72.33767 | 35263 ft | 431 kts | 356° |
| 2026-04-15 00:11 | 35.33324 | -72.33677 | 35262 ft | 431 kts | 356° |
| 2026-04-15 00:12 | 35.39331 | -72.33595 | 35253 ft | 432 kts | 356° |
| 2026-04-15 00:12 | 35.45340 | -72.33513 | 35263 ft | 432 kts | 356° |
| 2026-04-15 00:13 | 35.51348 | -72.33438 | 35256 ft | 432 kts | 356° |
| 2026-04-15 00:13 | 35.57367 | -72.33347 | 35251 ft | 432 kts | 356° |
| 2026-04-15 00:14 | 35.63373 | -72.33257 | 35245 ft | 432 kts | 356° |
| 2026-04-15 00:14 | 35.69391 | -72.33173 | 35253 ft | 432 kts | 356° |
| 2026-04-15 00:15 | 35.75406 | -72.33091 | 35247 ft | 432 kts | 356° |
| 2026-04-15 00:15 | 35.81421 | -72.33002 | 35244 ft | 432 kts | 356° |
| 2026-04-15 00:16 | 35.87406 | -72.32912 | 35236 ft | 432 kts | 356° |
| 2026-04-15 00:16 | 35.93430 | -72.32826 | 35237 ft | 433 kts | 356° |
| 2026-04-15 00:17 | 35.99455 | -72.32737 | 35236 ft | 433 kts | 356° |
| 2026-04-15 00:17 | 36.05430 | -72.33145 | 35230 ft | 426 kts | 344° |
| 2026-04-15 00:18 | 36.14006 | -72.35913 | 35221 ft | 425 kts | 342° |
| 2026-04-15 00:19 | 36.19740 | -72.37761 | 35234 ft | 425 kts | 341° |
| 2026-04-15 00:19 | 36.25477 | -72.39615 | 35222 ft | 426 kts | 341° |
| 2026-04-15 00:20 | 36.31166 | -72.41458 | 35213 ft | 426 kts | 341° |
| 2026-04-15 00:20 | 36.36900 | -72.43318 | 35212 ft | 426 kts | 341° |
| 2026-04-15 00:21 | 36.42669 | -72.45185 | 35213 ft | 426 kts | 341° |
| 2026-04-15 00:21 | 36.48403 | -72.47054 | 35207 ft | 426 kts | 341° |
| 2026-04-15 00:22 | 36.54133 | -72.48923 | 35204 ft | 426 kts | 341° |
| 2026-04-15 00:22 | 36.59830 | -72.50796 | 35208 ft | 426 kts | 341° |
| 2026-04-15 00:23 | 36.65597 | -72.52688 | 35210 ft | 426 kts | 341° |
| 2026-04-15 00:23 | 36.71377 | -72.54199 | 35197 ft | 432 kts | 352° |
| 2026-04-15 00:24 | 36.77429 | -72.54349 | 35195 ft | 434 kts | 354° |
| 2026-04-15 00:24 | 36.83468 | -72.54477 | 35183 ft | 434 kts | 354° |
| 2026-04-15 00:25 | 36.89511 | -72.54613 | 35192 ft | 434 kts | 354° |
| 2026-04-15 00:25 | 36.94535 | -72.54727 | 35188 ft | 434 kts | 354° |
| 2026-04-15 00:26 | 37.00579 | -72.54857 | 35181 ft | 434 kts | 354° |
| 2026-04-15 00:26 | 37.06622 | -72.54989 | 35177 ft | 434 kts | 354° |
| 2026-04-15 00:27 | 37.12663 | -72.55130 | 35173 ft | 434 kts | 354° |
| 2026-04-15 00:27 | 37.18715 | -72.55261 | 35166 ft | 434 kts | 354° |
| 2026-04-15 00:28 | 37.24720 | -72.54451 | 35159 ft | 446 kts | 11° |
| 2026-04-15 00:28 | 37.30615 | -72.51896 | 35165 ft | 448 kts | 13° |
| 2026-04-15 00:29 | 37.36508 | -72.49301 | 35172 ft | 449 kts | 13° |
| 2026-04-15 00:29 | 37.42406 | -72.46701 | 35166 ft | 449 kts | 13° |
| 2026-04-15 00:30 | 37.48313 | -72.44100 | 35157 ft | 449 kts | 13° |
| 2026-04-15 00:30 | 37.54211 | -72.41497 | 35154 ft | 449 kts | 13° |
| 2026-04-15 00:31 | 37.60114 | -72.38885 | 35165 ft | 450 kts | 13° |
| 2026-04-15 00:31 | 37.66020 | -72.36256 | 35159 ft | 450 kts | 13° |
| 2026-04-15 00:32 | 37.71925 | -72.33627 | 35152 ft | 450 kts | 13° |
| 2026-04-15 00:32 | 37.77830 | -72.30991 | 35168 ft | 450 kts | 13° |
| 2026-04-15 00:33 | 37.83690 | -72.28117 | 35154 ft | 457 kts | 22° |
| 2026-04-15 00:33 | 37.89220 | -72.24088 | 35154 ft | 459 kts | 24° |
| 2026-04-15 00:34 | 37.94739 | -72.20020 | 35149 ft | 459 kts | 24° |
| 2026-04-15 00:34 | 38.00257 | -72.15958 | 35155 ft | 459 kts | 24° |
| 2026-04-15 00:35 | 38.05777 | -72.11904 | 35148 ft | 459 kts | 24° |
| 2026-04-15 00:35 | 38.11299 | -72.07836 | 35146 ft | 459 kts | 24° |
| 2026-04-15 00:36 | 38.16822 | -72.03752 | 35145 ft | 459 kts | 24° |
| 2026-04-15 00:36 | 38.22343 | -71.99672 | 35148 ft | 459 kts | 24° |
| 2026-04-15 00:37 | 38.28061 | -71.96264 | 35139 ft | 447 kts | 9° |
| 2026-04-15 00:37 | 38.34114 | -71.95286 | 35137 ft | 435 kts | 355° |
| 2026-04-15 00:38 | 38.40175 | -71.95238 | 35144 ft | 435 kts | 355° |
| 2026-04-15 00:38 | 38.46237 | -71.95177 | 35131 ft | 436 kts | 355° |
| 2026-04-15 00:39 | 38.52312 | -71.95115 | 35125 ft | 437 kts | 355° |
| 2026-04-15 00:39 | 38.58359 | -71.95052 | 35131 ft | 437 kts | 355° |
| 2026-04-15 00:40 | 38.64446 | -71.94973 | 35139 ft | 437 kts | 355° |
| 2026-04-15 00:40 | 38.70538 | -71.94895 | 35120 ft | 438 kts | 355° |
| 2026-04-15 00:41 | 38.76631 | -71.94808 | 35122 ft | 438 kts | 355° |
| 2026-04-15 00:41 | 38.82728 | -71.94728 | 35114 ft | 438 kts | 355° |
| 2026-04-15 00:42 | 38.88823 | -71.94655 | 35122 ft | 438 kts | 355° |
| 2026-04-15 00:42 | 38.94869 | -71.94732 | 35115 ft | 433 kts | 347° |
| 2026-04-15 00:43 | 39.00506 | -71.96904 | 35106 ft | 418 kts | 328° |
| 2026-04-15 00:43 | 39.05183 | -72.01210 | 35099 ft | 412 kts | 317° |
| 2026-04-15 00:44 | 39.09640 | -72.05867 | 35113 ft | 413 kts | 317° |
| 2026-04-15 00:44 | 39.14109 | -72.10522 | 35107 ft | 413 kts | 317° |
| 2026-04-15 00:45 | 39.18568 | -72.15188 | 35097 ft | 413 kts | 317° |
| 2026-04-15 00:45 | 39.23021 | -72.19871 | 35094 ft | 413 kts | 317° |
| 2026-04-15 00:46 | 39.27470 | -72.24567 | 35093 ft | 413 kts | 317° |
| 2026-04-15 00:46 | 39.31919 | -72.29270 | 35093 ft | 413 kts | 317° |
| 2026-04-15 00:47 | 39.36358 | -72.33964 | 35094 ft | 412 kts | 317° |
| 2026-04-15 00:47 | 39.40801 | -72.38663 | 35090 ft | 412 kts | 317° |
| 2026-04-15 00:48 | 39.45231 | -72.43357 | 35080 ft | 411 kts | 317° |
| 2026-04-15 00:48 | 39.49655 | -72.48059 | 35079 ft | 411 kts | 317° |
| 2026-04-15 00:49 | 39.54053 | -72.52744 | 35081 ft | 411 kts | 317° |
| 2026-04-15 00:49 | 39.58471 | -72.57460 | 35090 ft | 411 kts | 317° |
| 2026-04-15 00:50 | 39.62884 | -72.62178 | 35079 ft | 411 kts | 316° |
| 2026-04-15 00:50 | 39.67293 | -72.66888 | 35078 ft | 410 kts | 316° |
| 2026-04-15 00:51 | 39.71695 | -72.71602 | 35071 ft | 410 kts | 316° |
| 2026-04-15 00:51 | 39.76091 | -72.76319 | 35069 ft | 410 kts | 316° |
| 2026-04-15 00:52 | 39.79993 | -72.81590 | 35059 ft | 402 kts | 300° |
| 2026-04-15 00:52 | 39.81247 | -72.84824 | 35057 ft | 400 kts | 289° |
| 2026-04-15 00:52 | 39.81958 | -72.88309 | 35051 ft | 400 kts | 279° |
| 2026-04-15 00:53 | 39.81999 | -72.95573 | 35033 ft | 403 kts | 270° |
| 2026-04-15 00:53 | 39.81803 | -73.02871 | 35039 ft | 404 kts | 270° |
| 2026-04-15 00:54 | 39.81609 | -73.10127 | 35038 ft | 404 kts | 270° |
| 2026-04-15 00:54 | 39.81400 | -73.17440 | 35041 ft | 405 kts | 270° |
| 2026-04-15 00:54 | 39.81291 | -73.21100 | 34466 ft | 408 kts | 270° |
| 2026-04-15 00:55 | 39.81390 | -73.24816 | 33436 ft | 414 kts | 278° |
| 2026-04-15 00:55 | 39.81988 | -73.28500 | 32426 ft | 420 kts | 287° |
| 2026-04-15 00:55 | 39.83047 | -73.32067 | 31434 ft | 426 kts | 292° |
| 2026-04-15 00:55 | 39.84213 | -73.35682 | 30464 ft | 431 kts | 292° |
| 2026-04-15 00:56 | 39.85374 | -73.39304 | 29368 ft | 436 kts | 292° |
| 2026-04-15 00:56 | 39.86543 | -73.42967 | 28232 ft | 441 kts | 292° |
| 2026-04-15 00:56 | 39.87715 | -73.46649 | 27360 ft | 440 kts | 292° |
| 2026-04-15 00:56 | 39.88874 | -73.50298 | 26493 ft | 440 kts | 292° |
| 2026-04-15 00:57 | 39.90040 | -73.53967 | 25744 ft | 438 kts | 292° |
| 2026-04-15 00:57 | 39.91200 | -73.57614 | 25053 ft | 434 kts | 292° |
| 2026-04-15 00:57 | 39.92351 | -73.61236 | 24366 ft | 431 kts | 292° |
| 2026-04-15 00:57 | 39.93534 | -73.64798 | 23675 ft | 427 kts | 294° |
| 2026-04-15 00:58 | 39.94808 | -73.68285 | 22888 ft | 424 kts | 295° |
| 2026-04-15 00:58 | 39.96135 | -73.71704 | 22129 ft | 420 kts | 296° |
| 2026-04-15 00:58 | 39.97451 | -73.75018 | 20906 ft | 407 kts | 296° |
| 2026-04-15 00:58 | 39.98745 | -73.78282 | 19434 ft | 402 kts | 296° |
| 2026-04-15 00:59 | 40.00003 | -73.81509 | 17959 ft | 397 kts | 295° |
| 2026-04-15 00:59 | 40.01229 | -73.84704 | 16497 ft | 390 kts | 295° |
| 2026-04-15 00:59 | 40.02428 | -73.87878 | 15286 ft | 396 kts | 295° |
| 2026-04-15 00:59 | 40.03656 | -73.91177 | 14065 ft | 407 kts | 294° |
| 2026-04-15 01:00 | 40.04895 | -73.94506 | 13249 ft | 405 kts | 294° |
| 2026-04-15 01:00 | 40.06114 | -73.97776 | 12562 ft | 399 kts | 295° |
| 2026-04-15 01:00 | 40.07324 | -74.01019 | 11889 ft | 395 kts | 295° |
| 2026-04-15 01:00 | 40.08521 | -74.04228 | 11241 ft | 390 kts | 295° |
| 2026-04-15 01:01 | 40.09806 | -74.07329 | 10546 ft | 388 kts | 304° |
| 2026-04-15 01:01 | 40.11719 | -74.09765 | 10096 ft | 383 kts | 324° |
| 2026-04-15 01:01 | 40.14086 | -74.11115 | 9938 ft | 372 kts | 343° |
| 2026-04-15 01:01 | 40.16601 | -74.11262 | 9953 ft | 358 kts | 5° |
| 2026-04-15 01:02 | 40.18906 | -74.10228 | 9958 ft | 346 kts | 27° |
| 2026-04-15 01:02 | 40.20680 | -74.08205 | 9958 ft | 335 kts | 51° |
| 2026-04-15 01:02 | 40.21718 | -74.05549 | 9964 ft | 322 kts | 68° |
| 2026-04-15 01:02 | 40.22428 | -74.02797 | 9965 ft | 318 kts | 70° |